createdAt,value
2023-03-01T00:00:37.574Z,4.4
2023-03-01T00:05:37.629Z,4.4
2023-03-01T00:10:56.152Z,4.4
2023-03-01T00:15:56.133Z,4.5
2023-03-01T00:21:37.547Z,4.6
2023-03-01T00:26:37.582Z,4.5
2023-03-01T00:31:56.165Z,4.5
2023-03-01T00:36:56.127Z,4.5
2023-03-01T00:41:56.118Z,4.4
2023-03-01T00:47:37.583Z,4.4
2023-03-01T00:52:37.676Z,4.3
2023-03-01T00:57:56.119Z,4.4
2023-03-01T01:03:37.589Z,4.5
2023-03-01T01:08:56.149Z,4.4
2023-03-01T01:14:37.587Z,4.4
2023-03-01T01:19:37.611Z,4.4
2023-03-01T01:24:56.113Z,4.4
2023-03-01T01:29:56.106Z,4.2
2023-03-01T01:35:37.610Z,4.5
2023-03-01T01:40:37.604Z,4.5
2023-03-01T01:45:56.115Z,4.4
2023-03-01T01:50:56.147Z,4.3
2023-03-01T01:56:37.595Z,4.4
2023-03-01T02:01:37.575Z,4.4
2023-03-01T02:06:56.089Z,4.5
2023-03-01T02:11:56.228Z,4.6
2023-03-01T02:17:37.600Z,4.5
2023-03-01T02:22:56.120Z,4.6
2023-03-01T02:27:56.134Z,4.4
2023-03-01T02:33:37.570Z,4.5
2023-03-01T02:38:37.562Z,4.6
2023-03-01T02:43:37.598Z,4.6
2023-03-01T02:48:37.573Z,4.5
2023-03-01T02:53:37.580Z,4.5
2023-03-01T02:58:56.138Z,4.4
2023-03-01T03:04:37.613Z,4.5
2023-03-01T03:09:56.108Z,4.5
2023-03-01T03:15:37.592Z,4.4
2023-03-01T03:20:37.594Z,4.4
2023-03-01T03:25:56.100Z,4.4
2023-03-01T03:31:37.697Z,4.4
2023-03-01T03:36:56.128Z,4.5
2023-03-01T03:42:37.618Z,4.5
2023-03-01T03:47:56.119Z,4.5
2023-03-01T03:52:56.144Z,4.5
2023-03-01T03:58:37.550Z,4.5
2023-03-01T04:03:37.588Z,4.4
2023-03-01T04:08:37.593Z,4.4
2023-03-01T04:13:56.064Z,4.4
2023-03-01T04:19:37.593Z,4.4
2023-03-01T04:24:56.101Z,4.4
2023-03-01T04:29:56.134Z,4.5
2023-03-01T04:35:37.729Z,4.5
2023-03-01T04:40:56.063Z,4.4
2023-03-01T04:45:56.142Z,4.4
2023-03-01T04:51:37.558Z,4.4
2023-03-01T04:56:56.088Z,4.3
2023-03-01T05:01:56.079Z,4.4
2023-03-01T05:06:56.437Z,4.4
2023-03-01T05:12:37.561Z,4.4
2023-03-01T05:17:56.113Z,4.4
2023-03-01T05:22:56.109Z,4.5
2023-03-01T05:27:56.104Z,4.4
2023-03-01T05:33:38.825Z,4.3
2023-03-01T05:38:37.567Z,4.4
2023-03-01T05:43:56.081Z,4.4
2023-03-01T05:49:39.670Z,4.3
2023-03-01T05:54:37.557Z,4.3
2023-03-01T05:59:56.105Z,4.3
2023-03-01T06:05:37.575Z,4.2
2023-03-01T06:10:56.109Z,4.2
2023-03-01T06:15:56.122Z,4.3
2023-03-01T06:20:56.076Z,4.2
2023-03-01T06:26:37.574Z,4.2
2023-03-01T06:31:56.069Z,4.3
2023-03-01T06:36:56.091Z,4.2
2023-03-01T06:42:37.543Z,4.3
2023-03-01T06:47:37.548Z,4.3
2023-03-01T06:52:56.046Z,4.3
2023-03-01T06:58:37.559Z,4.3
2023-03-01T07:03:37.584Z,4.3
2023-03-01T07:08:56.052Z,4.3
2023-03-01T07:13:56.070Z,4.4
2023-03-01T07:18:56.059Z,4.5
2023-03-01T07:24:37.576Z,4.6
2023-03-01T07:29:56.075Z,4.6
2023-03-01T07:35:37.537Z,4.7
2023-03-01T07:40:56.031Z,5
2023-03-01T07:45:56.084Z,5.4
2023-03-01T07:51:37.531Z,5.1
2023-03-01T07:56:56.059Z,5.1
2023-03-01T08:02:37.537Z,4.8
2023-03-01T08:07:56.027Z,5
2023-03-01T08:12:56.053Z,5.1
2023-03-01T08:17:56.087Z,6.1
2023-03-01T08:23:14.877Z,5
2023-03-01T08:28:37.541Z,5.4
2023-03-01T08:33:56.069Z,5.4
2023-03-01T08:39:37.517Z,4.9
2023-03-01T08:44:37.538Z,4.8
2023-03-01T08:49:56.050Z,4.8
2023-03-01T08:54:56.053Z,4.7
2023-03-01T09:00:37.565Z,4.7
2023-03-01T09:05:56.071Z,4.7
2023-03-01T09:11:37.494Z,4.6
2023-03-01T09:16:37.606Z,4.4
2023-03-01T09:21:40.532Z,4.4
2023-03-01T09:26:56.074Z,4.1
2023-03-01T09:32:37.526Z,4.3
2023-03-01T09:37:37.576Z,4
2023-03-01T09:42:56.030Z,3.9
2023-03-01T09:47:56.070Z,4
2023-03-01T09:52:56.105Z,3.8
2023-03-01T09:58:37.465Z,3.9
2023-03-01T10:03:37.625Z,4
2023-03-01T10:08:56.090Z,3.9
2023-03-01T10:13:56.094Z,4.2
2023-03-01T10:19:37.610Z,3.9
2023-03-01T10:24:56.092Z,4.1
2023-03-01T10:29:56.054Z,3.6
2023-03-01T10:35:37.603Z,4.1
2023-03-01T10:40:56.067Z,4.2
2023-03-01T10:45:56.178Z,4.3
2023-03-01T10:51:37.530Z,4.4
2023-03-01T10:56:56.100Z,4.3
2023-03-01T11:01:56.144Z,4.2
2023-03-01T11:06:56.068Z,4
2023-03-01T11:11:56.060Z,4.3
2023-03-01T11:17:48.021Z,4.4
2023-03-01T11:22:37.626Z,4.2
2023-03-01T11:27:39.735Z,4
2023-03-01T11:32:56.267Z,3.8
2023-03-01T11:38:37.528Z,3.7
2023-03-01T11:43:37.536Z,4
2023-03-01T11:48:56.118Z,4.1
2023-03-01T11:54:37.536Z,3.9
2023-03-01T11:59:37.548Z,3.7
2023-03-01T12:04:56.072Z,3.7
2023-03-01T12:10:37.550Z,3.9
2023-03-01T12:15:56.140Z,3.5
2023-03-01T12:21:37.520Z,3.8
2023-03-01T12:26:37.577Z,3.4
2023-03-01T12:31:56.262Z,3.7
2023-03-01T12:37:37.496Z,3.6
2023-03-01T12:42:37.538Z,3.7
2023-03-01T12:47:56.209Z,3.6
2023-03-01T12:52:56.121Z,3.8
2023-03-01T12:57:56.056Z,3.9
2023-03-01T13:02:56.114Z,3.9
2023-03-01T13:08:37.540Z,3.9
2023-03-01T13:13:56.075Z,4
2023-03-01T13:20:37.572Z,3.8
2023-03-01T13:25:46.618Z,3.8
2023-03-01T13:30:56.061Z,3.7
2023-03-01T13:36:37.531Z,3.5
2023-03-01T13:41:37.584Z,3.6
2023-03-01T13:46:56.190Z,3.5
2023-03-01T13:52:37.553Z,3.4
2023-03-01T13:57:56.074Z,3.2
2023-03-01T14:03:37.594Z,3.2
2023-03-01T14:08:56.073Z,3.3
2023-03-01T14:13:56.105Z,3.3
2023-03-01T14:19:37.537Z,3.4
2023-03-01T14:24:37.540Z,3.6
2023-03-01T14:29:56.116Z,3.7
2023-03-01T14:34:56.113Z,3.6
2023-03-01T14:40:37.533Z,3.6
2023-03-01T14:45:37.613Z,3.7
2023-03-01T14:50:37.570Z,3.8
2023-03-01T14:55:56.073Z,3.8
2023-03-01T15:01:37.647Z,3.7
2023-03-01T15:06:56.095Z,3.8
2023-03-01T15:12:37.522Z,3.6
2023-03-01T15:17:37.570Z,3.5
2023-03-01T15:22:37.548Z,3.4
2023-03-01T15:27:56.064Z,3.5
2023-03-01T15:32:56.106Z,3.4
2023-03-01T15:37:56.121Z,3.4
2023-03-01T15:43:37.540Z,3.6
2023-03-01T15:48:56.092Z,3.4
2023-03-01T15:54:37.449Z,3.5
2023-03-01T15:59:37.533Z,3.4
2023-03-01T16:04:56.109Z,3.5
2023-03-01T16:10:37.542Z,3.5
2023-03-01T16:15:56.146Z,3.5
2023-03-01T16:21:37.714Z,3.5
2023-03-01T16:26:56.143Z,3.5
2023-03-01T16:32:37.553Z,3.5
2023-03-01T16:37:56.063Z,3.6
2023-03-01T16:42:56.089Z,3.7
2023-03-01T16:48:37.543Z,3.6
2023-03-01T16:53:37.634Z,3.6
2023-03-01T16:58:56.058Z,3.6
2023-03-01T17:03:56.051Z,3.4
2023-03-01T17:08:56.122Z,3.3
2023-03-01T17:14:37.527Z,3.2
2023-03-01T17:19:56.059Z,3.2
2023-03-01T17:24:56.092Z,3.1
2023-03-01T17:30:37.541Z,3.2
2023-03-01T17:35:56.133Z,3.3
2023-03-01T17:41:37.580Z,3.2
2023-03-01T17:46:56.062Z,3.4
2023-03-01T17:51:56.065Z,3.5
2023-03-01T17:56:56.162Z,3.4
2023-03-01T18:02:37.612Z,3.4
2023-03-01T18:07:56.085Z,3.7
2023-03-01T18:13:37.561Z,3.7
2023-03-01T18:18:37.550Z,3.4
2023-03-01T18:23:56.060Z,3.7
2023-03-01T18:29:37.573Z,3.7
2023-03-01T18:34:37.612Z,3.5
2023-03-01T18:39:56.079Z,3.5
2023-03-01T18:44:56.130Z,3.5
2023-03-01T18:50:37.589Z,3.7
2023-03-01T18:55:58.120Z,3.6
2023-03-01T19:00:56.106Z,3.7
2023-03-01T19:06:37.532Z,3.8
2023-03-01T19:11:56.089Z,3.7
2023-03-01T19:17:37.560Z,3.7
2023-03-01T19:22:56.036Z,3.9
2023-03-01T19:27:56.066Z,3.9
2023-03-01T19:33:37.572Z,3.8
2023-03-01T19:38:56.033Z,3.8
2023-03-01T19:44:37.567Z,3.8
2023-03-01T19:49:56.096Z,3.9
2023-03-01T19:55:37.499Z,4
2023-03-01T20:00:37.512Z,3.8
2023-03-01T20:05:56.035Z,3.9
2023-03-01T20:10:56.140Z,3.9
2023-03-01T20:16:37.553Z,4
2023-03-01T20:21:37.535Z,3.9
2023-03-01T20:26:37.524Z,4
2023-03-01T20:31:56.320Z,4.1
2023-03-01T20:36:56.129Z,4
2023-03-01T20:42:37.484Z,3.9
2023-03-01T20:47:37.507Z,4
2023-03-01T20:52:56.071Z,4.1
2023-03-01T20:58:37.492Z,3.9
2023-03-01T21:03:56.147Z,3.7
2023-03-01T21:08:56.093Z,3.8
2023-03-01T21:13:56.042Z,4
2023-03-01T21:19:37.533Z,4
2023-03-01T21:24:56.064Z,3.9
2023-03-01T21:29:56.044Z,4.1
2023-03-01T21:35:37.537Z,4.1
2023-03-01T21:40:37.642Z,4.2
2023-03-01T21:45:56.090Z,4.1
2023-03-01T21:50:56.027Z,3.9
2023-03-01T21:56:37.628Z,4
2023-03-01T22:01:56.009Z,4.1
2023-03-01T22:06:56.013Z,4.1
2023-03-01T22:12:56.065Z,4
2023-03-01T22:17:56.041Z,4
2023-03-01T22:23:37.507Z,4.1
2023-03-01T22:28:56.143Z,4
2023-03-01T22:34:37.572Z,4
2023-03-01T22:39:56.074Z,3.9
2023-03-01T22:45:37.516Z,4
2023-03-01T22:50:37.509Z,4.1
2023-03-01T22:55:56.022Z,4.1
2023-03-01T23:01:37.472Z,4.1
2023-03-01T23:06:37.474Z,4
2023-03-01T23:11:37.521Z,4.1
2023-03-01T23:16:56.130Z,4.3
2023-03-01T23:22:37.449Z,4.3
2023-03-01T23:27:37.473Z,4.2
2023-03-01T23:32:56.038Z,4.4
2023-03-01T23:37:56.028Z,4.4
2023-03-01T23:43:37.488Z,4.5
2023-03-01T23:48:37.604Z,4.5
2023-03-01T23:53:56.050Z,4.6
2023-03-01T23:59:37.490Z,4.7
